Time;durP1;ratioP1;P1;durP2;ratioP2;P2;SDS_P1;SDS_P2;PMS_P1;PMS_P2;Temp;Humidity;BMP_temperature;BMP_pressure;BME280_temperature;BME280_humidity;BME280_pressure;Samples;Min_cycle;Max_cycle;Signal;HPM_P1;HPM_P2
2023/12/25 00:00:19;;;;;;;9.50;1.95;;;15.60;91.50;;;;;;4179852;28;20105;-56
2023/12/25 00:03:00;;;;;;;6.07;1.83;;;15.60;91.60;;;;;;4187008;28;20055;-56
2023/12/25 00:05:41;;;;;;;6.38;2.03;;;15.60;91.50;;;;;;4170331;28;20403;-54
2023/12/25 00:08:22;;;;;;;6.18;1.98;;;15.60;91.50;;;;;;4170443;28;20430;-55
2023/12/25 00:11:03;;;;;;;5.47;1.60;;;15.60;91.90;;;;;;4170412;28;20121;-55
2023/12/25 00:13:47;;;;;;;9.57;3.20;;;15.60;91.60;;;;;;4170421;28;20511;-55
2023/12/25 00:16:28;;;;;;;9.35;2.15;;;15.60;91.40;;;;;;4174100;28;20480;-56
2023/12/25 00:19:09;;;;;;;7.82;1.92;;;15.60;91.40;;;;;;4189508;28;20060;-56
2023/12/25 00:21:50;;;;;;;9.57;1.98;;;15.60;91.40;;;;;;4189481;28;20058;-56
2023/12/25 00:24:31;;;;;;;9.80;2.40;;;15.50;91.40;;;;;;4190001;28;20502;-56
2023/12/25 00:27:12;;;;;;;9.38;2.03;;;15.60;91.50;;;;;;4189843;28;20098;-56
2023/12/25 00:29:54;;;;;;;8.80;2.17;;;15.50;91.40;;;;;;4173309;28;20102;-55
2023/12/25 00:32:35;;;;;;;6.57;1.90;;;15.50;91.50;;;;;;4172692;28;20051;-47
2023/12/25 00:35:16;;;;;;;14.27;2.22;;;15.50;91.50;;;;;;4173205;28;20064;-48
2023/12/25 00:37:57;;;;;;;6.25;1.33;;;15.50;91.40;;;;;;4173397;28;20056;-47
2023/12/25 00:40:39;;;;;;;10.43;1.95;;;15.50;91.40;;;;;;4156879;28;20055;-46
2023/12/25 00:43:22;;;;;;;9.27;2.42;;;15.50;91.80;;;;;;4173137;28;20056;-46
2023/12/25 00:46:07;;;;;;;10.10;2.33;;;15.50;91.50;;;;;;4159656;28;20056;-45
2023/12/25 00:48:48;;;;;;;8.40;1.83;;;15.50;91.50;;;;;;4189397;28;20474;-49
2023/12/25 00:51:30;;;;;;;9.82;1.75;;;15.50;91.50;;;;;;4197266;28;20520;-48
2023/12/25 00:54:11;;;;;;;9.55;1.83;;;15.50;91.40;;;;;;4187635;28;20129;-47
2023/12/25 00:56:51;;;;;;;9.60;2.00;;;15.50;91.50;;;;;;4189352;28;20055;-49
2023/12/25 00:59:32;;;;;;;7.38;1.73;;;15.50;91.60;;;;;;4172532;28;20048;-52
2023/12/25 01:02:15;;;;;;;10.80;2.25;;;15.50;91.50;;;;;;4173153;28;20404;-47
2023/12/25 01:04:56;;;;;;;5.35;1.48;;;15.50;91.80;;;;;;4172991;28;20056;-52
2023/12/25 01:07:37;;;;;;;10.25;2.75;;;15.50;91.40;;;;;;4173114;28;20106;-50
2023/12/25 01:10:18;;;;;;;6.07;1.35;;;15.50;91.40;;;;;;4170818;28;20408;-48
2023/12/25 01:12:59;;;;;;;6.40;1.25;;;15.40;91.40;;;;;;4188060;28;20091;-50
2023/12/25 01:15:40;;;;;;;7.22;1.60;;;15.50;91.40;;;;;;4171174;28;20059;-45
2023/12/25 01:18:23;;;;;;;5.68;1.48;;;15.40;91.20;;;;;;4172937;28;20044;-48
2023/12/25 01:21:04;;;;;;;6.03;1.40;;;15.40;91.00;;;;;;4188334;28;20114;-48
2023/12/25 01:23:45;;;;;;;4.03;1.15;;;15.40;91.00;;;;;;4174858;28;20415;-48
2023/12/25 01:26:26;;;;;;;8.30;1.63;;;15.40;90.90;;;;;;4188794;28;20047;-46
2023/12/25 01:29:07;;;;;;;5.20;1.17;;;15.40;90.90;;;;;;4188564;28;20059;-48
2023/12/25 01:31:48;;;;;;;4.97;1.10;;;15.40;90.90;;;;;;4188964;28;20056;-46
2023/12/25 01:34:30;;;;;;;4.50;1.30;;;15.40;90.80;;;;;;4188744;28;20399;-48
2023/12/25 01:37:12;;;;;;;5.30;1.30;;;15.40;90.90;;;;;;4188942;28;20391;-51
2023/12/25 01:39:53;;;;;;;3.40;1.30;;;15.40;90.80;;;;;;4178377;28;20847;-50
2023/12/25 01:42:33;;;;;;;10.40;1.80;;;15.40;90.70;;;;;;4172312;28;20603;-48
2023/12/25 01:45:14;;;;;;;5.43;1.30;;;15.40;90.70;;;;;;4182013;28;20326;-47
2023/12/25 01:47:58;;;;;;;5.55;1.45;;;15.40;90.60;;;;;;4172257;28;20135;-46
2023/12/25 01:50:41;;;;;;;7.15;1.25;;;15.40;90.40;;;;;;4170794;28;20052;-49
2023/12/25 01:53:23;;;;;;;8.68;2.33;;;15.40;90.30;;;;;;4183550;28;20175;-50
2023/12/25 01:56:04;;;;;;;7.82;1.58;;;15.40;90.60;;;;;;4180360;28;20056;-49
2023/12/25 01:58:46;;;;;;;7.53;1.55;;;15.40;90.50;;;;;;4170952;28;20064;-46
2023/12/25 02:01:27;;;;;;;5.23;1.63;;;15.40;90.50;;;;;;4170885;28;20118;-46
2023/12/25 02:04:08;;;;;;;3.90;1.67;;;15.30;90.60;;;;;;4171738;28;20294;-46
2023/12/25 02:06:52;;;;;;;4.90;1.52;;;15.40;90.60;;;;;;4170460;28;20218;-50
2023/12/25 02:09:33;;;;;;;3.90;1.45;;;15.30;90.50;;;;;;4170780;28;20450;-49
2023/12/25 02:12:14;;;;;;;5.68;1.30;;;15.30;90.30;;;;;;4173764;28;20507;-54
2023/12/25 02:14:55;;;;;;;10.38;2.15;;;15.30;90.40;;;;;;4171638;28;20126;-53
2023/12/25 02:17:36;;;;;;;7.03;1.75;;;15.30;90.30;;;;;;4170669;28;20059;-53
2023/12/25 02:20:19;;;;;;;5.63;1.73;;;15.30;90.40;;;;;;4185837;28;20416;-54
2023/12/25 02:23:05;;;;;;;8.57;1.63;;;15.30;90.30;;;;;;4186537;28;20051;-51
2023/12/25 02:25:54;;;;;;;6.70;2.33;;;15.30;90.10;;;;;;4186848;28;20052;-53
2023/12/25 02:28:35;;;;;;;6.25;1.73;;;15.30;90.10;;;;;;4181945;28;20060;-50
2023/12/25 02:31:17;;;;;;;4.80;1.70;;;15.20;90.30;;;;;;4171842;28;20420;-49
2023/12/25 02:33:58;;;;;;;7.07;1.60;;;15.20;90.20;;;;;;4172694;28;20074;-53
2023/12/25 02:36:39;;;;;;;7.35;1.63;;;15.20;90.30;;;;;;4187388;28;20518;-53
2023/12/25 02:39:21;;;;;;;5.53;1.40;;;15.30;90.30;;;;;;4181461;28;20052;-53
2023/12/25 02:42:03;;;;;;;5.78;1.10;;;15.30;90.20;;;;;;4171620;28;20064;-53
2023/12/25 02:44:44;;;;;;;6.93;1.40;;;15.20;90.20;;;;;;4183228;28;20055;-50
2023/12/25 02:47:25;;;;;;;3.63;2.10;;;15.20;90.30;;;;;;4181473;28;20059;-53
2023/12/25 02:50:07;;;;;;;8.88;1.65;;;15.20;90.20;;;;;;4179453;28;20473;-49
2023/12/25 02:52:47;;;;;;;10.48;1.60;;;15.20;90.70;;;;;;4187501;28;20060;-53
2023/12/25 02:55:29;;;;;;;8.95;1.92;;;15.20;90.20;;;;;;4187935;28;20089;-52
2023/12/25 02:58:12;;;;;;;5.15;1.50;;;15.20;90.40;;;;;;4187176;28;20118;-50
2023/12/25 03:00:52;;;;;;;12.50;2.13;;;15.20;90.50;;;;;;4184944;28;20048;-52
2023/12/25 03:03:34;;;;;;;7.50;1.67;;;15.20;90.40;;;;;;4170677;28;20098;-53
2023/12/25 03:06:15;;;;;;;7.90;2.05;;;15.20;90.30;;;;;;4182047;28;20514;-54
2023/12/25 03:08:56;;;;;;;5.82;1.65;;;15.20;90.30;;;;;;4187258;28;20063;-50
2023/12/25 03:11:37;;;;;;;11.23;2.50;;;15.20;90.30;;;;;;4187498;28;20521;-53
2023/12/25 03:14:19;;;;;;;7.32;2.08;;;15.20;90.40;;;;;;4170303;28;20569;-53
2023/12/25 03:17:00;;;;;;;12.70;2.75;;;15.20;90.50;;;;;;4187174;28;20052;-49
2023/12/25 03:19:41;;;;;;;6.95;1.60;;;15.20;90.60;;;;;;4182705;28;20097;-51
2023/12/25 03:22:22;;;;;;;;;;;15.20;90.50;;;;;;4198378;28;20133;-52
2023/12/25 03:25:03;;;;;;;5.22;2.03;;;15.10;90.50;;;;;;4172156;28;19928;-53
2023/12/25 03:27:44;;;;;;;6.43;2.22;;;15.10;90.80;;;;;;4186321;28;20519;-50
2023/12/25 03:30:27;;;;;;;8.98;1.92;;;15.10;90.70;;;;;;4187011;28;20143;-53
2023/12/25 03:33:08;;;;;;;6.75;1.77;;;15.20;90.60;;;;;;4186714;28;20063;-50
2023/12/25 03:35:49;;;;;;;11.77;2.00;;;15.10;90.50;;;;;;4185433;28;20050;-52
2023/12/25 03:38:30;;;;;;;10.63;2.10;;;15.10;90.50;;;;;;4185493;28;20063;-51
2023/12/25 03:41:11;;;;;;;14.27;1.85;;;15.10;90.60;;;;;;4187166;28;20079;-45
2023/12/25 03:43:51;;;;;;;8.65;2.03;;;15.10;90.60;;;;;;4186915;28;20063;-46
2023/12/25 03:46:34;;;;;;;5.55;1.65;;;15.10;90.70;;;;;;4186633;28;20222;-45
2023/12/25 03:49:15;;;;;;;5.88;1.58;;;15.10;91.10;;;;;;4185358;28;20047;-46
2023/12/25 03:51:57;;;;;;;7.22;1.60;;;15.10;91.00;;;;;;4175100;28;20059;-49
2023/12/25 03:54:38;;;;;;;9.50;1.55;;;15.10;90.50;;;;;;4170516;28;20102;-45
2023/12/25 03:57:20;;;;;;;6.38;1.67;;;15.10;90.50;;;;;;4185414;28;20056;-46
2023/12/25 04:00:01;;;;;;;3.95;1.90;;;15.10;90.50;;;;;;4186548;28;20048;-48
2023/12/25 04:02:54;;;;;;;6.43;1.77;;;15.10;90.50;;;;;;4170018;28;20047;-48
2023/12/25 04:05:36;;;;;;;12.07;1.70;;;15.10;90.50;;;;;;4168976;28;20066;-49
2023/12/25 04:08:17;;;;;;;9.07;1.60;;;15.10;90.50;;;;;;4169219;28;20107;-52
2023/12/25 04:10:58;;;;;;;9.52;1.30;;;15.10;90.50;;;;;;4182310;28;20060;-49
2023/12/25 04:13:40;;;;;;;7.47;1.40;;;15.10;90.40;;;;;;4170900;28;20152;-46
2023/12/25 04:16:21;;;;;;;;;;;15.00;90.30;;;;;;4186112;28;20794;-48
2023/12/25 04:19:03;;;;;;;5.90;1.67;;;15.00;90.30;;;;;;4185731;28;19927;-50
2023/12/25 04:21:45;;;;;;;8.70;1.60;;;15.00;90.40;;;;;;4186743;28;20449;-53
2023/12/25 04:24:26;;;;;;;;;;;15.00;90.40;;;;;;4184664;28;20055;-52
2023/12/25 04:27:07;;;;;;;5.25;1.60;;;15.00;90.20;;;;;;4185027;28;20390;-47
2023/12/25 04:29:49;;;;;;;6.63;1.65;;;15.00;90.80;;;;;;4183543;28;20560;-47
2023/12/25 04:32:30;;;;;;;6.10;1.77;;;15.00;90.40;;;;;;4173582;28;20043;-49
2023/12/25 04:35:13;;;;;;;6.35;1.63;;;15.00;90.30;;;;;;4186640;28;20050;-49
2023/12/25 04:37:53;;;;;;;8.80;2.50;;;15.00;90.30;;;;;;4196808;28;20411;-48
2023/12/25 04:40:35;;;;;;;7.53;1.63;;;15.00;90.20;;;;;;4171680;28;20575;-52
2023/12/25 04:43:15;;;;;;;6.55;1.38;;;15.00;90.50;;;;;;4186240;28;20568;-48
2023/12/25 04:45:57;;;;;;;8.95;1.50;;;15.00;90.10;;;;;;4135992;28;20551;-47
2023/12/25 04:48:38;;;;;;;11.00;1.90;;;15.00;90.00;;;;;;4147481;28;20057;-47
2023/12/25 04:51:21;;;;;;;9.45;1.88;;;15.00;90.00;;;;;;4151943;28;20092;-48
2023/12/25 04:54:02;;;;;;;10.60;1.80;;;15.00;90.10;;;;;;4135586;28;20524;-47
2023/12/25 04:56:43;;;;;;;7.20;2.33;;;15.00;90.10;;;;;;4131510;28;20053;-48
2023/12/25 04:59:24;;;;;;;6.90;1.80;;;14.90;90.10;;;;;;4135999;28;20076;-48
2023/12/25 05:02:05;;;;;;;9.27;1.52;;;14.90;90.00;;;;;;4146552;28;20303;-51
2023/12/25 05:04:46;;;;;;;3.95;1.40;;;14.90;90.10;;;;;;4124420;28;20529;-48
2023/12/25 05:07:28;;;;;;;6.60;1.70;;;15.00;90.10;;;;;;4138632;28;20049;-49
2023/12/25 05:10:11;;;;;;;7.82;1.92;;;15.00;90.10;;;;;;4139739;28;21138;-48
2023/12/25 05:12:52;;;;;;;4.35;1.30;;;15.00;90.30;;;;;;4139889;28;20512;-48
2023/12/25 05:15:33;;;;;;;9.60;1.80;;;14.90;90.20;;;;;;4143866;28;20056;-49
2023/12/25 05:18:14;;;;;;;6.55;1.38;;;15.00;90.20;;;;;;4156396;28;20713;-49
2023/12/25 05:20:56;;;;;;;5.40;1.70;;;14.90;90.10;;;;;;4154863;28;20203;-49
2023/12/25 05:23:38;;;;;;;10.77;1.75;;;14.90;90.10;;;;;;4144171;28;20108;-49
2023/12/25 05:26:20;;;;;;;6.70;1.73;;;14.90;90.10;;;;;;4134071;28;20620;-47
2023/12/25 05:29:01;;;;;;;7.20;1.52;;;14.90;90.20;;;;;;4123132;28;20053;-50
2023/12/25 05:31:42;;;;;;;10.90;1.65;;;14.90;90.20;;;;;;4140615;28;20144;-48
2023/12/25 05:34:23;;;;;;;8.02;1.58;;;14.90;90.20;;;;;;4139116;28;20489;-49
2023/12/25 05:37:05;;;;;;;6.55;1.58;;;14.90;90.10;;;;;;4139490;28;20053;-45
2023/12/25 05:39:47;;;;;;;6.68;2.00;;;14.90;90.10;;;;;;4139229;28;20052;-49
2023/12/25 05:42:28;;;;;;;9.40;2.08;;;14.90;90.10;;;;;;4139747;28;20052;-51
2023/12/25 05:45:09;;;;;;;7.00;1.23;;;14.90;90.10;;;;;;4151067;28;20056;-51
2023/12/25 05:47:50;;;;;;;12.25;2.13;;;14.90;90.10;;;;;;4164856;28;20154;-47
2023/12/25 05:50:31;;;;;;;5.45;1.80;;;14.90;90.10;;;;;;4188314;28;20195;-46
2023/12/25 05:53:12;;;;;;;12.15;2.13;;;14.90;90.20;;;;;;4183265;28;20056;-45
2023/12/25 05:55:55;;;;;;;7.88;2.10;;;14.90;90.10;;;;;;4155694;28;20114;-48
2023/12/25 05:58:36;;;;;;;8.90;2.05;;;14.90;90.60;;;;;;4171932;28;20151;-49
2023/12/25 06:01:17;;;;;;;12.52;2.00;;;14.90;90.20;;;;;;4172038;28;20052;-47
2023/12/25 06:04:00;;;;;;;10.85;1.65;;;14.90;90.10;;;;;;4166943;28;20056;-49
2023/12/25 06:06:42;;;;;;;7.82;1.90;;;14.90;90.20;;;;;;4186102;28;20047;-47
2023/12/25 06:09:25;;;;;;;6.20;1.38;;;14.90;90.60;;;;;;4174540;28;20059;-46
2023/12/25 06:12:08;;;;;;;7.63;1.58;;;14.90;90.10;;;;;;4174714;28;20075;-46
2023/12/25 06:14:49;;;;;;;10.88;2.13;;;14.80;90.00;;;;;;4171789;28;20056;-50
2023/12/25 06:17:30;;;;;;;6.28;2.00;;;14.80;90.00;;;;;;4171698;28;20052;-48
2023/12/25 06:20:11;;;;;;;8.48;1.67;;;14.80;90.00;;;;;;4177228;28;20105;-47
2023/12/25 06:22:56;;;;;;;8.13;2.05;;;14.90;90.10;;;;;;4188067;28;20056;-48
2023/12/25 06:25:38;;;;;;;6.25;1.52;;;14.80;90.00;;;;;;4188196;28;20121;-51
2023/12/25 06:28:20;;;;;;;6.40;2.05;;;14.80;90.10;;;;;;4188252;28;20056;-50
2023/12/25 06:31:01;;;;;;;7.85;1.73;;;14.80;90.10;;;;;;4187911;28;20055;-51
2023/12/25 06:33:42;;;;;;;6.60;1.50;;;14.80;90.10;;;;;;4160307;28;20060;-51
2023/12/25 06:36:23;;;;;;;;;;;14.80;90.00;;;;;;4156282;28;20064;-48
2023/12/25 06:39:04;;;;;;;9.30;1.85;;;14.90;90.00;;;;;;4182810;28;20291;-53
2023/12/25 06:41:45;;;;;;;15.27;2.28;;;14.80;90.10;;;;;;4186449;28;20059;-52
2023/12/25 06:44:27;;;;;;;5.35;1.83;;;14.80;90.00;;;;;;4187730;28;20605;-50
2023/12/25 06:47:08;;;;;;;8.48;1.63;;;14.80;90.00;;;;;;4169810;28;20098;-52
2023/12/25 06:49:49;;;;;;;9.57;1.92;;;14.80;89.90;;;;;;4179753;28;20050;-53
2023/12/25 06:52:30;;;;;;;7.38;1.80;;;14.80;89.90;;;;;;4154793;28;20052;-50
2023/12/25 06:55:11;;;;;;;9.20;2.17;;;14.80;90.00;;;;;;4172726;28;20055;-55
2023/12/25 06:57:52;;;;;;;10.10;2.13;;;14.80;90.00;;;;;;4187507;28;20070;-53
2023/12/25 07:00:35;;;;;;;;;;;14.80;90.00;;;;;;4182397;28;20138;-53
2023/12/25 07:03:16;;;;;;;5.03;1.90;;;14.80;90.10;;;;;;4171076;28;20292;-53
2023/12/25 07:05:57;;;;;;;9.73;2.38;;;14.80;90.70;;;;;;4177628;28;20726;-50
2023/12/25 07:08:38;;;;;;;9.05;2.10;;;14.80;90.30;;;;;;4187002;28;20063;-53
2023/12/25 07:11:19;;;;;;;4.63;1.77;;;14.80;90.40;;;;;;4186579;28;20514;-52
2023/12/25 07:14:00;;;;;;;9.45;2.17;;;14.80;90.30;;;;;;4177055;28;20059;-56
2023/12/25 07:16:42;;;;;;;9.55;1.60;;;14.80;90.60;;;;;;4169334;28;20052;-55
2023/12/25 07:19:23;;;;;;;10.02;2.40;;;14.80;90.30;;;;;;4172170;28;20047;-54
2023/12/25 07:22:04;;;;;;;9.35;1.77;;;14.80;90.30;;;;;;4186444;28;20576;-56
2023/12/25 07:24:45;;;;;;;10.57;1.77;;;14.80;90.20;;;;;;4155652;28;20091;-51
2023/12/25 07:27:27;;;;;;;7.85;2.38;;;14.90;90.20;;;;;;4171453;28;20572;-57
2023/12/25 07:30:08;;;;;;;11.00;2.63;;;14.80;90.30;;;;;;4187376;28;20502;-54
2023/12/25 07:32:50;;;;;;;10.98;1.98;;;14.80;90.30;;;;;;4186572;28;20048;-56
2023/12/25 07:35:31;;;;;;;8.50;2.00;;;14.80;89.90;;;;;;4186408;28;20063;-54
2023/12/25 07:38:12;;;;;;;13.00;1.88;;;14.80;90.30;;;;;;4170261;28;20140;-56
2023/12/25 07:40:53;;;;;;;10.57;1.80;;;14.80;90.40;;;;;;4154104;28;20072;-54
2023/12/25 07:43:35;;;;;;;6.65;1.70;;;14.80;90.50;;;;;;4170194;28;20542;-57
2023/12/25 07:46:16;;;;;;;7.78;1.88;;;14.80;90.40;;;;;;4170406;28;20048;-52
2023/12/25 07:48:59;;;;;;;6.80;2.50;;;14.80;90.60;;;;;;4185265;28;20182;-54
2023/12/25 07:51:40;;;;;;;11.43;1.90;;;14.80;90.70;;;;;;4186795;28;20067;-53
2023/12/25 07:54:21;;;;;;;7.35;1.42;;;14.80;90.70;;;;;;4186650;28;20178;-53
2023/12/25 07:57:02;;;;;;;6.03;1.52;;;14.80;90.70;;;;;;4185491;28;20059;-53
2023/12/25 07:59:43;;;;;;;5.85;1.30;;;14.80;90.60;;;;;;4173086;28;20067;-53
2023/12/25 08:02:25;;;;;;;6.97;2.03;;;14.80;90.70;;;;;;4170800;28;20503;-50
2023/12/25 08:05:07;;;;;;;9.73;2.08;;;14.80;90.70;;;;;;4173237;28;20059;-51
2023/12/25 08:07:48;;;;;;;11.25;2.25;;;14.70;90.50;;;;;;4186052;28;20055;-52
2023/12/25 08:10:29;;;;;;;10.45;1.80;;;14.70;90.40;;;;;;4171859;28;20411;-54
2023/12/25 08:13:10;;;;;;;7.53;1.83;;;14.70;90.40;;;;;;4159533;28;20107;-50
2023/12/25 08:15:52;;;;;;;11.05;2.67;;;14.70;90.40;;;;;;4184953;28;20064;-52
2023/12/25 08:18:33;;;;;;;10.35;2.63;;;14.70;90.40;;;;;;4186309;28;20198;-53
2023/12/25 08:21:17;;;;;;;10.07;2.25;;;14.70;90.40;;;;;;4185927;28;20566;-48
2023/12/25 08:23:58;;;;;;;15.25;1.70;;;14.70;90.70;;;;;;4179024;28;20091;-51
2023/12/25 08:26:39;;;;;;;9.02;1.05;;;14.70;90.30;;;;;;4183053;28;20052;-51
2023/12/25 08:29:20;;;;;;;7.40;1.55;;;14.70;90.30;;;;;;4170467;28;20556;-50
2023/12/25 08:32:01;;;;;;;2.95;1.23;;;14.70;90.20;;;;;;4173184;28;20094;-52
2023/12/25 08:34:42;;;;;;;7.88;1.52;;;14.60;90.10;;;;;;4183580;28;20051;-53
2023/12/25 08:37:25;;;;;;;12.27;2.13;;;14.70;90.00;;;;;;4168739;28;20146;-51
2023/12/25 08:40:07;;;;;;;4.75;1.33;;;14.60;89.80;;;;;;4180108;28;20515;-54
2023/12/25 08:42:48;;;;;;;4.07;1.10;;;14.60;89.80;;;;;;4175707;28;20055;-52
2023/12/25 08:45:30;;;;;;;12.52;1.65;;;14.60;89.70;;;;;;4181827;28;20059;-54
2023/12/25 08:48:11;;;;;;;10.60;1.65;;;14.60;89.60;;;;;;4186974;28;20503;-53
2023/12/25 08:50:52;;;;;;;7.03;1.30;;;14.60;89.50;;;;;;4185531;28;20101;-53
2023/12/25 08:53:35;;;;;;;7.07;1.30;;;14.60;89.30;;;;;;4181330;28;20416;-51
2023/12/25 08:56:24;;;;;;;4.20;1.17;;;14.60;89.20;;;;;;4179774;28;20518;-53
2023/12/25 08:59:05;;;;;;;6.95;1.55;;;14.60;88.80;;;;;;4169994;28;20056;-53
2023/12/25 09:01:46;;;;;;;5.40;1.25;;;14.60;88.70;;;;;;4180413;28;20051;-52
2023/12/25 09:04:27;;;;;;;5.28;1.55;;;14.60;88.50;;;;;;4173540;28;20122;-50
2023/12/25 09:07:08;;;;;;;8.18;1.45;;;14.60;88.70;;;;;;4169777;28;20048;-54
2023/12/25 09:09:51;;;;;;;4.53;0.77;;;14.50;88.60;;;;;;4167992;28;20052;-46
2023/12/25 09:12:32;;;;;;;4.72;1.10;;;14.50;88.40;;;;;;4175272;28;20530;-51
2023/12/25 09:15:13;;;;;;;7.72;1.48;;;14.50;88.60;;;;;;4170227;28;20408;-46
2023/12/25 09:17:54;;;;;;;8.40;1.60;;;14.50;88.50;;;;;;4175448;28;20052;-49
2023/12/25 09:20:35;;;;;;;4.85;1.08;;;14.50;88.40;;;;;;4170046;28;20052;-48
2023/12/25 09:23:16;;;;;;;4.10;1.00;;;14.50;88.20;;;;;;4179518;28;20105;-48
2023/12/25 09:25:58;;;;;;;4.28;1.30;;;14.50;88.20;;;;;;4182991;28;20087;-49
2023/12/25 09:28:39;;;;;;;7.45;1.60;;;14.50;88.20;;;;;;4185427;28;20052;-53
2023/12/25 09:31:20;;;;;;;4.95;1.52;;;14.50;88.30;;;;;;4186019;28;20147;-54
2023/12/25 09:34:01;;;;;;;11.77;3.03;;;14.50;88.30;;;;;;4173352;28;20060;-53
2023/12/25 09:36:42;;;;;;;6.75;1.35;;;14.60;88.40;;;;;;4168738;28;20087;-50
2023/12/25 09:39:23;;;;;;;3.92;1.40;;;14.60;88.50;;;;;;4168090;28;20060;-49
2023/12/25 09:42:07;;;;;;;7.03;1.70;;;14.60;88.50;;;;;;4170392;28;20730;-49
2023/12/25 09:44:50;;;;;;;6.35;1.90;;;14.50;88.40;;;;;;4170173;28;20056;-55
2023/12/25 09:47:35;;;;;;;5.75;1.40;;;14.60;88.40;;;;;;4183321;28;20161;-51
2023/12/25 09:50:20;;;;;;;5.70;1.20;;;14.60;88.20;;;;;;4184892;28;20063;-52
2023/12/25 09:53:02;;;;;;;6.15;1.38;;;14.50;88.00;;;;;;4180648;28;20055;-53
2023/12/25 09:55:44;;;;;;;2.03;1.30;;;14.50;87.90;;;;;;4172006;28;20627;-53
2023/12/25 09:58:28;;;;;;;5.22;1.10;;;14.50;87.80;;;;;;4169231;28;20056;-53
2023/12/25 10:01:13;;;;;;;7.78;1.90;;;14.50;88.00;;;;;;4171447;28;20056;-53
2023/12/25 10:03:55;;;;;;;2.67;0.98;;;14.50;88.00;;;;;;4183299;28;20101;-52
2023/12/25 10:06:36;;;;;;;4.68;1.70;;;14.50;88.00;;;;;;4184427;28;20183;-53
2023/12/25 10:09:17;;;;;;;6.22;1.48;;;14.50;88.00;;;;;;4181460;28;20060;-53
2023/12/25 10:11:58;;;;;;;6.03;1.25;;;14.50;88.20;;;;;;4168241;28;20055;-53
2023/12/25 10:14:40;;;;;;;9.15;1.92;;;14.50;88.20;;;;;;4168776;28;20064;-53
2023/12/25 10:17:21;;;;;;;8.82;1.48;;;14.50;88.30;;;;;;4184805;28;20198;-52
2023/12/25 10:20:03;;;;;;;8.85;2.25;;;14.50;88.10;;;;;;4168686;28;20052;-52
2023/12/25 10:22:44;;;;;;;8.60;2.28;;;14.50;88.10;;;;;;4171216;28;20393;-53
2023/12/25 10:25:27;;;;;;;2.95;1.65;;;14.50;87.90;;;;;;4167622;28;20110;-55
2023/12/25 10:28:11;;;;;;;6.95;2.33;;;14.60;87.90;;;;;;4173306;28;20503;-53
2023/12/25 10:31:00;;;;;;;5.20;1.38;;;14.60;88.00;;;;;;4168648;28;20051;-49
2023/12/25 10:33:57;;;;;;;5.38;1.35;;;14.60;88.00;;;;;;4184049;28;20201;-50
2023/12/25 10:36:41;;;;;;;3.42;0.85;;;14.60;88.00;;;;;;4181486;28;20790;-51
2023/12/25 10:39:29;;;;;;;4.88;1.63;;;14.60;88.20;;;;;;4175521;28;20507;-49
2023/12/25 10:42:12;;;;;;;5.18;1.95;;;14.60;88.30;;;;;;4167711;28;20441;-50
2023/12/25 10:44:55;;;;;;;7.72;1.60;;;14.60;88.40;;;;;;4183169;28;20109;-47
2023/12/25 10:47:38;;;;;;;10.02;2.20;;;14.60;88.30;;;;;;4183730;28;20059;-50
2023/12/25 10:50:21;;;;;;;3.95;1.58;;;14.70;88.20;;;;;;4183656;28;20556;-51
2023/12/25 10:53:05;;;;;;;10.63;2.13;;;14.70;88.30;;;;;;4170154;28;20070;-51
2023/12/25 10:55:47;;;;;;;7.68;1.60;;;14.90;88.30;;;;;;4176742;28;20056;-52
2023/12/25 10:58:28;;;;;;;6.13;1.77;;;15.30;87.40;;;;;;4167121;28;20756;-49
2023/12/25 11:01:09;;;;;;;7.10;1.90;;;15.80;85.70;;;;;;4171267;28;20056;-52
2023/12/25 11:03:53;;;;;;;4.40;1.63;;;16.40;83.60;;;;;;4183609;28;20052;-52
2023/12/25 11:06:36;;;;;;;3.13;1.20;;;16.90;81.90;;;;;;4175751;28;20052;-48
2023/12/25 11:09:19;;;;;;;5.43;1.80;;;17.50;79.60;;;;;;4171965;28;20095;-52
2023/12/25 11:12:02;;;;;;;9.10;1.65;;;18.00;77.40;;;;;;4167318;28;20499;-52
2023/12/25 11:14:43;;;;;;;6.88;1.90;;;18.50;75.40;;;;;;4172594;28;20056;-52
2023/12/25 11:17:27;;;;;;;10.27;1.85;;;18.90;73.40;;;;;;4167826;28;20059;-53
2023/12/25 11:20:12;;;;;;;4.88;1.55;;;19.20;71.50;;;;;;4182706;28;20510;-52
2023/12/25 11:22:56;;;;;;;8.23;1.75;;;19.30;70.70;;;;;;4184484;28;20101;-49
2023/12/25 11:25:37;;;;;;;5.18;1.70;;;19.40;70.40;;;;;;4168341;28;20407;-48
2023/12/25 11:28:18;;;;;;;6.03;1.85;;;19.30;70.30;;;;;;4173720;28;20060;-48
2023/12/25 11:31:01;;;;;;;7.22;1.33;;;19.20;70.60;;;;;;4167953;28;20052;-49
2023/12/25 11:33:45;;;;;;;5.20;1.55;;;19.00;70.90;;;;;;4167659;28;20475;-46
2023/12/25 11:36:31;;;;;;;6.82;1.80;;;18.80;71.50;;;;;;4176048;28;20082;-50
2023/12/25 11:39:12;;;;;;;6.32;1.25;;;18.60;71.80;;;;;;4167706;28;20063;-48
2023/12/25 11:41:54;;;;;;;5.43;1.65;;;18.50;73.40;;;;;;4166374;28;20462;-50
2023/12/25 11:44:35;;;;;;;8.20;1.80;;;18.30;73.30;;;;;;4183000;28;20071;-46
2023/12/25 11:47:28;;;;;;;5.70;1.50;;;18.20;73.50;;;;;;4170228;28;20431;-48
2023/12/25 11:50:10;;;;;;;11.93;2.20;;;18.00;73.90;;;;;;4166915;28;20071;-48
2023/12/25 11:52:55;;;;;;;9.43;2.05;;;17.90;74.70;;;;;;4174875;28;20113;-48
2023/12/25 11:55:38;;;;;;;11.15;2.55;;;17.70;75.40;;;;;;4183865;28;20055;-47
2023/12/25 11:58:19;;;;;;;2.47;1.40;;;17.60;76.00;;;;;;4166846;28;20114;-45
2023/12/25 12:01:00;;;;;;;7.53;1.92;;;17.40;76.30;;;;;;4183017;28;20052;-44
2023/12/25 12:03:42;;;;;;;6.43;1.90;;;17.30;76.80;;;;;;4177450;28;20063;-48
2023/12/25 12:06:23;;;;;;;10.95;2.00;;;17.20;77.40;;;;;;4167635;28;20056;-47
2023/12/25 12:09:06;;;;;;;6.05;1.50;;;17.10;77.90;;;;;;4177274;28;20098;-46
2023/12/25 12:11:47;;;;;;;9.60;1.88;;;17.00;78.60;;;;;;4180650;28;20182;-51
2023/12/25 12:14:29;;;;;;;8.05;2.10;;;16.90;79.10;;;;;;4172868;28;20055;-45
2023/12/25 12:17:09;;;;;;;7.72;1.50;;;16.80;79.40;;;;;;4168673;28;20098;-49
2023/12/25 12:19:51;;;;;;;10.60;1.60;;;16.70;79.80;;;;;;4167801;28;20163;-46
2023/12/25 12:22:32;;;;;;;7.55;1.70;;;16.70;79.90;;;;;;4184070;28;20617;-49
2023/12/25 12:25:15;;;;;;;8.38;1.83;;;16.60;80.20;;;;;;4162863;28;20102;-47
2023/12/25 12:28:00;;;;;;;7.60;2.00;;;16.50;80.40;;;;;;4174422;28;20056;-48
2023/12/25 12:30:41;;;;;;;7.13;1.77;;;16.40;80.80;;;;;;4176971;28;20527;-50
2023/12/25 12:33:24;;;;;;;6.15;1.90;;;16.30;81.00;;;;;;4167817;28;20083;-50
2023/12/25 12:36:06;;;;;;;6.75;1.80;;;16.30;81.50;;;;;;4177454;28;20059;-47
2023/12/25 12:38:48;;;;;;;9.75;1.63;;;16.20;81.50;;;;;;4182645;28;20079;-45
2023/12/25 12:41:30;;;;;;;6.50;1.45;;;16.10;81.80;;;;;;4178893;28;20186;-46
2023/12/25 12:44:11;;;;;;;6.32;1.77;;;16.00;82.10;;;;;;4180226;28;20075;-45
2023/12/25 12:46:53;;;;;;;4.60;1.77;;;16.00;82.60;;;;;;4174726;28;20053;-46
2023/12/25 12:49:34;;;;;;;7.68;2.03;;;15.90;82.70;;;;;;4179123;28;20063;-45
2023/12/25 12:52:15;;;;;;;8.52;1.75;;;15.90;83.10;;;;;;4182039;28;20083;-50
2023/12/25 12:54:58;;;;;;;9.43;1.90;;;15.80;83.20;;;;;;4179589;28;20047;-47
2023/12/25 12:57:41;;;;;;;10.68;2.15;;;15.80;83.50;;;;;;4183870;28;20550;-45
2023/12/25 13:00:22;;;;;;;12.20;2.10;;;15.80;83.90;;;;;;4171405;28;20154;-50
2023/12/25 13:03:04;;;;;;;10.88;2.70;;;15.70;84.30;;;;;;4182108;28;20206;-48
2023/12/25 13:05:45;;;;;;;8.15;2.33;;;15.70;84.60;;;;;;4174598;28;20614;-52
2023/12/25 13:08:26;;;;;;;11.10;2.85;;;15.70;85.00;;;;;;4166201;28;20056;-49
2023/12/25 13:11:08;;;;;;;8.00;2.22;;;15.70;85.20;;;;;;4181879;28;20059;-52
2023/12/25 13:13:50;;;;;;;15.50;3.13;;;15.70;85.40;;;;;;4170930;28;20415;-54
2023/12/25 13:16:32;;;;;;;13.30;3.38;;;15.70;85.60;;;;;;4165378;28;20064;-48
2023/12/25 13:19:13;;;;;;;12.60;4.00;;;15.70;85.60;;;;;;4166289;28;20203;-49
2023/12/25 13:21:55;;;;;;;11.35;3.03;;;15.60;85.70;;;;;;4164148;28;20085;-51
2023/12/25 13:24:37;;;;;;;10.25;3.15;;;15.70;86.10;;;;;;4173944;28;20133;-50
2023/12/25 13:27:19;;;;;;;;;;;15.70;86.30;;;;;;4180902;28;20523;-50
2023/12/25 13:30:02;;;;;;;13.20;3.22;;;15.70;86.00;;;;;;4184148;28;19928;-50
2023/12/25 13:32:44;;;;;;;8.50;3.28;;;15.80;85.60;;;;;;4173220;28;20056;-49
2023/12/25 13:35:25;;;;;;;9.18;2.47;;;15.80;85.40;;;;;;4168438;28;20103;-51
2023/12/25 13:38:06;;;;;;;11.65;3.35;;;15.80;85.40;;;;;;4169573;28;20063;-54
2023/12/25 13:40:47;;;;;;;9.07;2.42;;;15.90;85.70;;;;;;4176415;28;20052;-50
2023/12/25 13:43:28;;;;;;;13.73;3.72;;;16.00;85.70;;;;;;4176281;28;20052;-51
2023/12/25 13:46:11;;;;;;;10.27;3.25;;;16.00;85.40;;;;;;4179816;28;20059;-50
2023/12/25 13:48:52;;;;;;;9.10;2.83;;;16.10;85.10;;;;;;4170477;28;20142;-51
2023/12/25 13:51:34;;;;;;;9.82;3.95;;;16.20;84.70;;;;;;4172876;28;20060;-50
2023/12/25 13:54:15;;;;;;;7.13;2.72;;;16.30;84.60;;;;;;4185777;28;20063;-49
2023/12/25 13:56:56;;;;;;;10.52;3.00;;;16.30;84.40;;;;;;4171037;28;20097;-47
2023/12/25 13:59:37;;;;;;;7.95;2.58;;;16.40;84.20;;;;;;4177909;28;20055;-49